sensor_id;sensor_type;location;lat;lon;timestamp;pressure;altitude;pressure_sealevel;temperature;humidity
73817;BME280;62146;53.232;-1.304;2023-04-08T00:00:03;101350.91;;;7.49;100.00
73817;BME280;62146;53.232;-1.304;2023-04-08T00:02:31;101357.78;;;7.44;100.00
73817;BME280;62146;53.232;-1.304;2023-04-08T00:04:58;101357.16;;;7.42;100.00
73817;BME280;62146;53.232;-1.304;2023-04-08T00:07:25;101358.75;;;7.36;100.00
73817;BME280;62146;53.232;-1.304;2023-04-08T00:09:51;101357.53;;;7.32;100.00
73817;BME280;62146;53.232;-1.304;2023-04-08T00:12:18;101352.19;;;7.26;100.00
73817;BME280;62146;53.232;-1.304;2023-04-08T00:14:45;101360.06;;;7.20;100.00
73817;BME280;62146;53.232;-1.304;2023-04-08T00:17:11;101357.41;;;7.13;100.00
73817;BME280;62146;53.232;-1.304;2023-04-08T00:19:38;101350.91;;;7.09;100.00
73817;BME280;62146;53.232;-1.304;2023-04-08T00:22:04;101352.47;;;7.04;100.00
73817;BME280;62146;53.232;-1.304;2023-04-08T00:24:32;101363.81;;;6.98;100.00
73817;BME280;62146;53.232;-1.304;2023-04-08T00:26:58;101366.00;;;6.94;100.00
73817;BME280;62146;53.232;-1.304;2023-04-08T00:29:26;101362.50;;;6.88;100.00
73817;BME280;62146;53.232;-1.304;2023-04-08T00:31:52;101360.25;;;6.85;100.00
73817;BME280;62146;53.232;-1.304;2023-04-08T00:34:19;101359.00;;;6.81;100.00
73817;BME280;62146;53.232;-1.304;2023-04-08T00:36:46;101357.97;;;6.75;100.00
73817;BME280;62146;53.232;-1.304;2023-04-08T00:39:13;101359.16;;;6.73;100.00
73817;BME280;62146;53.232;-1.304;2023-04-08T00:41:40;101361.75;;;6.67;100.00
73817;BME280;62146;53.232;-1.304;2023-04-08T00:44:06;101363.16;;;6.63;100.00
73817;BME280;62146;53.232;-1.304;2023-04-08T00:46:35;101357.25;;;6.61;100.00
73817;BME280;62146;53.232;-1.304;2023-04-08T00:49:04;101360.06;;;6.59;100.00
73817;BME280;62146;53.232;-1.304;2023-04-08T00:51:31;101357.19;;;6.54;100.00
73817;BME280;62146;53.232;-1.304;2023-04-08T00:53:58;101354.50;;;6.48;100.00
73817;BME280;62146;53.232;-1.304;2023-04-08T00:56:26;101362.13;;;6.43;100.00
73817;BME280;62146;53.232;-1.304;2023-04-08T00:58:52;101364.34;;;6.40;100.00
73817;BME280;62146;53.232;-1.304;2023-04-08T01:01:49;101374.19;;;6.31;100.00
73817;BME280;62146;53.232;-1.304;2023-04-08T01:07:17;101369.31;;;6.28;100.00
73817;BME280;62146;53.232;-1.304;2023-04-08T01:09:49;101372.25;;;6.19;100.00
73817;BME280;62146;53.232;-1.304;2023-04-08T01:12:42;101369.41;;;6.20;100.00
73817;BME280;62146;53.232;-1.304;2023-04-08T01:15:10;101368.38;;;6.15;100.00
73817;BME280;62146;53.232;-1.304;2023-04-08T01:17:39;101365.50;;;6.10;100.00
73817;BME280;62146;53.232;-1.304;2023-04-08T01:20:08;101371.94;;;6.08;100.00
73817;BME280;62146;53.232;-1.304;2023-04-08T01:25:30;101376.75;;;6.04;100.00
73817;BME280;62146;53.232;-1.304;2023-04-08T01:28:11;101376.38;;;6.07;100.00
73817;BME280;62146;53.232;-1.304;2023-04-08T01:30:39;101378.38;;;6.05;100.00
73817;BME280;62146;53.232;-1.304;2023-04-08T01:33:07;101373.09;;;6.05;100.00
73817;BME280;62146;53.232;-1.304;2023-04-08T01:35:36;101375.75;;;6.05;100.00
73817;BME280;62146;53.232;-1.304;2023-04-08T01:38:06;101380.41;;;6.03;100.00
73817;BME280;62146;53.232;-1.304;2023-04-08T01:40:34;101376.94;;;6.03;100.00
73817;BME280;62146;53.232;-1.304;2023-04-08T01:43:01;101370.88;;;6.02;100.00
73817;BME280;62146;53.232;-1.304;2023-04-08T01:45:29;101377.13;;;6.01;100.00
73817;BME280;62146;53.232;-1.304;2023-04-08T01:47:57;101371.84;;;6.01;100.00
73817;BME280;62146;53.232;-1.304;2023-04-08T01:50:26;101377.50;;;5.98;100.00
73817;BME280;62146;53.232;-1.304;2023-04-08T01:52:53;101378.50;;;5.97;100.00
73817;BME280;62146;53.232;-1.304;2023-04-08T01:55:21;101376.63;;;5.91;100.00
73817;BME280;62146;53.232;-1.304;2023-04-08T01:57:50;101378.00;;;5.88;100.00
73817;BME280;62146;53.232;-1.304;2023-04-08T02:00:22;101390.91;;;5.83;100.00
73817;BME280;62146;53.232;-1.304;2023-04-08T02:02:49;101380.75;;;5.80;100.00
73817;BME280;62146;53.232;-1.304;2023-04-08T02:05:17;101386.97;;;5.79;100.00
73817;BME280;62146;53.232;-1.304;2023-04-08T02:07:43;101396.63;;;5.72;100.00
73817;BME280;62146;53.232;-1.304;2023-04-08T02:10:12;101400.25;;;5.71;100.00
73817;BME280;62146;53.232;-1.304;2023-04-08T02:12:38;101394.09;;;5.64;100.00
73817;BME280;62146;53.232;-1.304;2023-04-08T02:15:05;101392.81;;;5.60;100.00
73817;BME280;62146;53.232;-1.304;2023-04-08T02:17:42;101386.47;;;5.55;100.00
73817;BME280;62146;53.232;-1.304;2023-04-08T02:20:10;101394.72;;;5.52;100.00
73817;BME280;62146;53.232;-1.304;2023-04-08T02:23:12;101397.28;;;5.45;100.00
73817;BME280;62146;53.232;-1.304;2023-04-08T02:25:43;101390.75;;;5.41;100.00
73817;BME280;62146;53.232;-1.304;2023-04-08T02:28:11;101387.47;;;5.39;100.00
73817;BME280;62146;53.232;-1.304;2023-04-08T02:30:41;101392.47;;;5.34;100.00
73817;BME280;62146;53.232;-1.304;2023-04-08T02:33:09;101392.63;;;5.33;100.00
73817;BME280;62146;53.232;-1.304;2023-04-08T02:35:37;101395.34;;;5.25;100.00
73817;BME280;62146;53.232;-1.304;2023-04-08T02:38:05;101398.38;;;5.22;100.00
73817;BME280;62146;53.232;-1.304;2023-04-08T02:40:33;101401.50;;;5.18;100.00
73817;BME280;62146;53.232;-1.304;2023-04-08T02:43:00;101399.88;;;5.17;100.00
73817;BME280;62146;53.232;-1.304;2023-04-08T02:45:30;101399.63;;;5.12;100.00
73817;BME280;62146;53.232;-1.304;2023-04-08T02:48:00;101397.69;;;5.06;100.00
73817;BME280;62146;53.232;-1.304;2023-04-08T02:50:27;101400.72;;;5.03;100.00
73817;BME280;62146;53.232;-1.304;2023-04-08T02:52:54;101405.66;;;4.98;100.00
73817;BME280;62146;53.232;-1.304;2023-04-08T02:55:21;101410.13;;;4.98;100.00
73817;BME280;62146;53.232;-1.304;2023-04-08T02:57:47;101411.31;;;4.95;100.00
73817;BME280;62146;53.232;-1.304;2023-04-08T03:00:15;101413.47;;;4.92;100.00
73817;BME280;62146;53.232;-1.304;2023-04-08T03:02:41;101412.81;;;4.90;100.00
73817;BME280;62146;53.232;-1.304;2023-04-08T03:05:08;101405.84;;;4.82;100.00
73817;BME280;62146;53.232;-1.304;2023-04-08T03:07:35;101409.47;;;4.81;100.00
73817;BME280;62146;53.232;-1.304;2023-04-08T03:10:02;101413.63;;;4.76;100.00
73817;BME280;62146;53.232;-1.304;2023-04-08T03:12:29;101414.13;;;4.72;100.00
73817;BME280;62146;53.232;-1.304;2023-04-08T03:14:56;101410.41;;;4.66;100.00
73817;BME280;62146;53.232;-1.304;2023-04-08T03:17:23;101409.94;;;4.63;100.00
73817;BME280;62146;53.232;-1.304;2023-04-08T03:19:50;101417.56;;;4.58;100.00
73817;BME280;62146;53.232;-1.304;2023-04-08T03:22:16;101412.84;;;4.53;100.00
73817;BME280;62146;53.232;-1.304;2023-04-08T03:24:43;101414.63;;;4.53;100.00
73817;BME280;62146;53.232;-1.304;2023-04-08T03:27:09;101408.09;;;4.49;100.00
73817;BME280;62146;53.232;-1.304;2023-04-08T03:29:37;101410.91;;;4.48;100.00
73817;BME280;62146;53.232;-1.304;2023-04-08T03:32:04;101409.97;;;4.41;100.00
73817;BME280;62146;53.232;-1.304;2023-04-08T03:34:33;101414.59;;;4.39;100.00
73817;BME280;62146;53.232;-1.304;2023-04-08T03:36:59;101416.56;;;4.37;100.00
73817;BME280;62146;53.232;-1.304;2023-04-08T03:39:26;101415.94;;;4.35;100.00
73817;BME280;62146;53.232;-1.304;2023-04-08T03:41:52;101417.44;;;4.29;100.00
73817;BME280;62146;53.232;-1.304;2023-04-08T03:44:19;101426.66;;;4.26;100.00
73817;BME280;62146;53.232;-1.304;2023-04-08T03:46:46;101409.63;;;4.22;100.00
73817;BME280;62146;53.232;-1.304;2023-04-08T03:49:12;101409.16;;;4.18;100.00
73817;BME280;62146;53.232;-1.304;2023-04-08T03:51:39;101422.44;;;4.17;100.00
73817;BME280;62146;53.232;-1.304;2023-04-08T03:54:06;101415.91;;;4.13;100.00
73817;BME280;62146;53.232;-1.304;2023-04-08T03:56:33;101413.81;;;4.08;100.00
73817;BME280;62146;53.232;-1.304;2023-04-08T03:58:59;101418.72;;;4.11;100.00
73817;BME280;62146;53.232;-1.304;2023-04-08T04:01:26;101417.25;;;4.09;100.00
73817;BME280;62146;53.232;-1.304;2023-04-08T04:03:53;101414.16;;;4.05;100.00
73817;BME280;62146;53.232;-1.304;2023-04-08T04:06:19;101423.84;;;4.05;100.00
73817;BME280;62146;53.232;-1.304;2023-04-08T04:08:46;101425.19;;;4.01;100.00
73817;BME280;62146;53.232;-1.304;2023-04-08T04:11:13;101423.22;;;3.95;100.00
73817;BME280;62146;53.232;-1.304;2023-04-08T04:13:39;101428.19;;;3.90;100.00
73817;BME280;62146;53.232;-1.304;2023-04-08T04:16:06;101435.06;;;3.91;100.00
73817;BME280;62146;53.232;-1.304;2023-04-08T04:18:33;101440.50;;;3.90;100.00
73817;BME280;62146;53.232;-1.304;2023-04-08T04:20:59;101436.91;;;3.83;100.00
73817;BME280;62146;53.232;-1.304;2023-04-08T04:23:26;101440.88;;;3.79;100.00
73817;BME280;62146;53.232;-1.304;2023-04-08T04:25:52;101435.16;;;3.75;100.00
73817;BME280;62146;53.232;-1.304;2023-04-08T04:28:19;101441.38;;;3.74;100.00
73817;BME280;62146;53.232;-1.304;2023-04-08T04:30:45;101443.72;;;3.70;100.00
73817;BME280;62146;53.232;-1.304;2023-04-08T04:33:12;101441.56;;;3.65;100.00
73817;BME280;62146;53.232;-1.304;2023-04-08T04:35:39;101450.63;;;3.63;100.00
73817;BME280;62146;53.232;-1.304;2023-04-08T04:38:07;101454.22;;;3.62;100.00
73817;BME280;62146;53.232;-1.304;2023-04-08T04:40:38;101456.00;;;3.61;100.00
73817;BME280;62146;53.232;-1.304;2023-04-08T04:43:04;101453.56;;;3.60;100.00
73817;BME280;62146;53.232;-1.304;2023-04-08T04:45:31;101451.13;;;3.58;100.00
73817;BME280;62146;53.232;-1.304;2023-04-08T04:47:58;101446.03;;;3.57;100.00
73817;BME280;62146;53.232;-1.304;2023-04-08T04:50:24;101443.59;;;3.55;100.00
73817;BME280;62146;53.232;-1.304;2023-04-08T04:52:51;101444.09;;;3.51;100.00
73817;BME280;62146;53.232;-1.304;2023-04-08T04:55:18;101448.53;;;3.50;100.00
73817;BME280;62146;53.232;-1.304;2023-04-08T04:57:44;101447.25;;;3.47;100.00
73817;BME280;62146;53.232;-1.304;2023-04-08T05:00:11;101445.91;;;3.43;100.00
73817;BME280;62146;53.232;-1.304;2023-04-08T05:02:37;101446.75;;;3.43;100.00
73817;BME280;62146;53.232;-1.304;2023-04-08T05:05:05;101449.19;;;3.45;100.00
73817;BME280;62146;53.232;-1.304;2023-04-08T05:07:35;101452.16;;;3.42;100.00
73817;BME280;62146;53.232;-1.304;2023-04-08T05:10:03;101451.84;;;3.37;100.00
73817;BME280;62146;53.232;-1.304;2023-04-08T05:12:29;101456.78;;;3.32;100.00
73817;BME280;62146;53.232;-1.304;2023-04-08T05:14:57;101455.31;;;3.29;100.00
73817;BME280;62146;53.232;-1.304;2023-04-08T05:17:25;101457.25;;;3.27;100.00
73817;BME280;62146;53.232;-1.304;2023-04-08T05:19:51;101454.00;;;3.25;100.00
73817;BME280;62146;53.232;-1.304;2023-04-08T05:22:18;101453.53;;;3.22;100.00
73817;BME280;62146;53.232;-1.304;2023-04-08T05:24:45;101459.91;;;3.19;100.00
73817;BME280;62146;53.232;-1.304;2023-04-08T05:27:11;101454.19;;;3.16;100.00
73817;BME280;62146;53.232;-1.304;2023-04-08T05:29:38;101463.34;;;3.12;100.00
73817;BME280;62146;53.232;-1.304;2023-04-08T05:32:05;101466.16;;;3.11;100.00
73817;BME280;62146;53.232;-1.304;2023-04-08T05:34:31;101477.94;;;3.07;100.00
73817;BME280;62146;53.232;-1.304;2023-04-08T05:36:58;101478.75;;;3.07;100.00
73817;BME280;62146;53.232;-1.304;2023-04-08T05:39:24;101487.59;;;3.06;100.00
73817;BME280;62146;53.232;-1.304;2023-04-08T05:41:51;101482.53;;;3.05;100.00
73817;BME280;62146;53.232;-1.304;2023-04-08T05:44:18;101485.97;;;3.05;100.00
73817;BME280;62146;53.232;-1.304;2023-04-08T05:46:44;101492.53;;;3.01;100.00
73817;BME280;62146;53.232;-1.304;2023-04-08T05:49:11;101496.28;;;2.99;100.00
73817;BME280;62146;53.232;-1.304;2023-04-08T05:51:38;101495.97;;;3.02;100.00
73817;BME280;62146;53.232;-1.304;2023-04-08T05:54:05;101499.22;;;3.04;100.00
73817;BME280;62146;53.232;-1.304;2023-04-08T05:56:32;101499.88;;;3.06;100.00
73817;BME280;62146;53.232;-1.304;2023-04-08T05:58:58;101508.06;;;3.11;100.00
73817;BME280;62146;53.232;-1.304;2023-04-08T06:01:25;101504.13;;;3.15;100.00
73817;BME280;62146;53.232;-1.304;2023-04-08T06:03:52;101505.44;;;3.19;100.00
73817;BME280;62146;53.232;-1.304;2023-04-08T06:06:19;101509.03;;;3.25;100.00
73817;BME280;62146;53.232;-1.304;2023-04-08T06:08:45;101520.16;;;3.35;100.00
73817;BME280;62146;53.232;-1.304;2023-04-08T06:11:12;101514.75;;;3.37;100.00
73817;BME280;62146;53.232;-1.304;2023-04-08T06:13:39;101519.78;;;3.46;100.00
73817;BME280;62146;53.232;-1.304;2023-04-08T06:16:13;101522.41;;;3.54;100.00
73817;BME280;62146;53.232;-1.304;2023-04-08T06:18:40;101523.69;;;3.58;100.00
73817;BME280;62146;53.232;-1.304;2023-04-08T06:21:06;101527.47;;;3.63;100.00
73817;BME280;62146;53.232;-1.304;2023-04-08T06:23:33;101531.22;;;3.69;100.00
73817;BME280;62146;53.232;-1.304;2023-04-08T06:25:59;101529.75;;;3.74;100.00
73817;BME280;62146;53.232;-1.304;2023-04-08T06:28:28;101531.66;;;3.80;100.00
73817;BME280;62146;53.232;-1.304;2023-04-08T06:30:56;101529.19;;;3.86;100.00
73817;BME280;62146;53.232;-1.304;2023-04-08T06:33:23;101535.75;;;3.90;100.00
73817;BME280;62146;53.232;-1.304;2023-04-08T06:35:50;101536.22;;;3.94;100.00
73817;BME280;62146;53.232;-1.304;2023-04-08T06:38:17;101541.63;;;4.00;100.00
73817;BME280;62146;53.232;-1.304;2023-04-08T06:40:43;101532.75;;;4.01;100.00
73817;BME280;62146;53.232;-1.304;2023-04-08T06:43:10;101535.69;;;4.06;100.00
73817;BME280;62146;53.232;-1.304;2023-04-08T06:45:36;101539.44;;;4.11;100.00
73817;BME280;62146;53.232;-1.304;2023-04-08T06:48:03;101539.75;;;4.16;100.00
73817;BME280;62146;53.232;-1.304;2023-04-08T06:50:29;101547.09;;;4.21;100.00
73817;BME280;62146;53.232;-1.304;2023-04-08T06:52:56;101546.56;;;4.25;100.00
73817;BME280;62146;53.232;-1.304;2023-04-08T06:55:23;101546.06;;;4.29;100.00
73817;BME280;62146;53.232;-1.304;2023-04-08T06:57:49;101559.31;;;4.36;100.00
73817;BME280;62146;53.232;-1.304;2023-04-08T07:00:16;101553.41;;;4.42;100.00
73817;BME280;62146;53.232;-1.304;2023-04-08T07:02:43;101558.59;;;4.50;100.00
73817;BME280;62146;53.232;-1.304;2023-04-08T07:05:10;101562.00;;;4.58;100.00
73817;BME280;62146;53.232;-1.304;2023-04-08T07:07:37;101555.06;;;4.65;100.00
73817;BME280;62146;53.232;-1.304;2023-04-08T07:10:04;101555.00;;;4.73;100.00
73817;BME280;62146;53.232;-1.304;2023-04-08T07:12:30;101548.03;;;4.79;100.00
73817;BME280;62146;53.232;-1.304;2023-04-08T07:14:57;101548.19;;;4.86;100.00
73817;BME280;62146;53.232;-1.304;2023-04-08T07:17:24;101557.00;;;4.93;100.00
73817;BME280;62146;53.232;-1.304;2023-04-08T07:19:50;101562.19;;;5.01;100.00
73817;BME280;62146;53.232;-1.304;2023-04-08T07:22:17;101563.94;;;5.08;100.00
73817;BME280;62146;53.232;-1.304;2023-04-08T07:24:43;101567.50;;;5.15;100.00
73817;BME280;62146;53.232;-1.304;2023-04-08T07:27:15;101564.16;;;5.21;100.00
73817;BME280;62146;53.232;-1.304;2023-04-08T07:29:42;101569.53;;;5.27;100.00
73817;BME280;62146;53.232;-1.304;2023-04-08T07:32:09;101571.63;;;5.32;100.00
73817;BME280;62146;53.232;-1.304;2023-04-08T07:34:36;101571.75;;;5.38;100.00
73817;BME280;62146;53.232;-1.304;2023-04-08T07:37:02;101582.34;;;5.44;100.00
73817;BME280;62146;53.232;-1.304;2023-04-08T07:39:29;101576.38;;;5.50;100.00
73817;BME280;62146;53.232;-1.304;2023-04-08T07:41:55;101580.94;;;5.56;100.00
73817;BME280;62146;53.232;-1.304;2023-04-08T07:44:22;101581.84;;;5.63;100.00
73817;BME280;62146;53.232;-1.304;2023-04-08T07:46:49;101580.34;;;5.68;100.00
73817;BME280;62146;53.232;-1.304;2023-04-08T07:49:17;101581.09;;;5.77;100.00
73817;BME280;62146;53.232;-1.304;2023-04-08T07:51:43;101589.91;;;5.84;100.00
73817;BME280;62146;53.232;-1.304;2023-04-08T07:54:10;101589.00;;;5.91;100.00
73817;BME280;62146;53.232;-1.304;2023-04-08T07:56:37;101593.38;;;5.98;100.00
73817;BME280;62146;53.232;-1.304;2023-04-08T07:59:06;101595.91;;;6.06;100.00
73817;BME280;62146;53.232;-1.304;2023-04-08T08:01:32;101594.81;;;6.15;100.00
73817;BME280;62146;53.232;-1.304;2023-04-08T08:04:00;101596.53;;;6.22;100.00
73817;BME280;62146;53.232;-1.304;2023-04-08T08:06:27;101594.00;;;6.29;100.00
73817;BME280;62146;53.232;-1.304;2023-04-08T08:08:54;101599.97;;;6.37;100.00
73817;BME280;62146;53.232;-1.304;2023-04-08T08:11:21;101596.44;;;6.44;100.00
73817;BME280;62146;53.232;-1.304;2023-04-08T08:13:47;101592.06;;;6.51;100.00
73817;BME280;62146;53.232;-1.304;2023-04-08T08:16:14;101600.84;;;6.58;100.00
73817;BME280;62146;53.232;-1.304;2023-04-08T08:18:41;101599.09;;;6.65;100.00
73817;BME280;62146;53.232;-1.304;2023-04-08T08:21:08;101601.00;;;6.71;100.00
73817;BME280;62146;53.232;-1.304;2023-04-08T08:23:35;101605.34;;;6.78;100.00
73817;BME280;62146;53.232;-1.304;2023-04-08T08:26:07;101608.03;;;6.85;100.00
73817;BME280;62146;53.232;-1.304;2023-04-08T08:28:36;101610.75;;;6.91;100.00
73817;BME280;62146;53.232;-1.304;2023-04-08T08:31:03;101607.56;;;6.95;100.00
73817;BME280;62146;53.232;-1.304;2023-04-08T08:33:31;101608.66;;;7.01;100.00
73817;BME280;62146;53.232;-1.304;2023-04-08T08:35:58;101607.06;;;7.06;100.00
73817;BME280;62146;53.232;-1.304;2023-04-08T08:38:26;101601.66;;;7.14;100.00
73817;BME280;62146;53.232;-1.304;2023-04-08T08:40:57;101605.19;;;7.21;100.00
73817;BME280;62146;53.232;-1.304;2023-04-08T08:43:24;101604.44;;;7.27;100.00
73817;BME280;62146;53.232;-1.304;2023-04-08T08:45:51;101612.41;;;7.33;100.00
73817;BME280;62146;53.232;-1.304;2023-04-08T08:48:17;101611.47;;;7.41;100.00
73817;BME280;62146;53.232;-1.304;2023-04-08T08:50:44;101608.69;;;7.48;100.00
73817;BME280;62146;53.232;-1.304;2023-04-08T08:53:12;101603.66;;;7.53;100.00
73817;BME280;62146;53.232;-1.304;2023-04-08T08:55:38;101603.50;;;7.61;100.00
73817;BME280;62146;53.232;-1.304;2023-04-08T08:58:26;101601.75;;;7.68;100.00
73817;BME280;62146;53.232;-1.304;2023-04-08T09:00:53;101594.91;;;7.74;100.00
73817;BME280;62146;53.232;-1.304;2023-04-08T09:03:27;101599.81;;;7.83;100.00
73817;BME280;62146;53.232;-1.304;2023-04-08T09:06:00;101599.50;;;7.92;100.00
73817;BME280;62146;53.232;-1.304;2023-04-08T09:08:34;101596.31;;;8.03;100.00
73817;BME280;62146;53.232;-1.304;2023-04-08T09:13:42;101610.50;;;8.29;100.00
73817;BME280;62146;53.232;-1.304;2023-04-08T09:16:14;101615.03;;;8.41;100.00
73817;BME280;62146;53.232;-1.304;2023-04-08T09:18:44;101629.16;;;8.55;100.00
73817;BME280;62146;53.232;-1.304;2023-04-08T09:21:13;101613.34;;;8.67;100.00
73817;BME280;62146;53.232;-1.304;2023-04-08T09:23:45;101621.75;;;8.83;100.00
73817;BME280;62146;53.232;-1.304;2023-04-08T09:26:17;101630.34;;;9.05;100.00
73817;BME280;62146;53.232;-1.304;2023-04-08T09:29:00;101624.50;;;9.28;100.00
73817;BME280;62146;53.232;-1.304;2023-04-08T09:31:43;101623.31;;;9.50;100.00
73817;BME280;62146;53.232;-1.304;2023-04-08T09:34:14;101624.31;;;9.74;100.00
73817;BME280;62146;53.232;-1.304;2023-04-08T09:36:49;101622.91;;;9.97;100.00
73817;BME280;62146;53.232;-1.304;2023-04-08T09:39:16;101628.56;;;10.20;100.00
73817;BME280;62146;53.232;-1.304;2023-04-08T09:41:44;101627.72;;;10.45;100.00
73817;BME280;62146;53.232;-1.304;2023-04-08T09:44:14;101627.22;;;10.67;100.00
73817;BME280;62146;53.232;-1.304;2023-04-08T09:51:48;101604.38;;;11.33;100.00
73817;BME280;62146;53.232;-1.304;2023-04-08T09:54:20;101606.75;;;11.54;100.00
73817;BME280;62146;53.232;-1.304;2023-04-08T09:56:53;101608.56;;;11.77;100.00
73817;BME280;62146;53.232;-1.304;2023-04-08T09:59:24;101604.47;;;11.99;100.00
73817;BME280;62146;53.232;-1.304;2023-04-08T10:01:55;101603.63;;;12.23;100.00
73817;BME280;62146;53.232;-1.304;2023-04-08T10:04:25;101603.78;;;12.45;100.00
73817;BME280;62146;53.232;-1.304;2023-04-08T10:06:56;101594.66;;;12.70;100.00
73817;BME280;62146;53.232;-1.304;2023-04-08T10:09:26;101603.59;;;12.93;100.00
73817;BME280;62146;53.232;-1.304;2023-04-08T10:11:53;101596.75;;;13.15;100.00
73817;BME280;62146;53.232;-1.304;2023-04-08T10:14:20;101592.97;;;13.34;100.00
73817;BME280;62146;53.232;-1.304;2023-04-08T10:16:47;101595.09;;;13.54;100.00
73817;BME280;62146;53.232;-1.304;2023-04-08T10:19:39;101584.47;;;13.77;100.00
73817;BME280;62146;53.232;-1.304;2023-04-08T10:27:44;101583.31;;;14.41;100.00
73817;BME280;62146;53.232;-1.304;2023-04-08T10:32:56;101573.81;;;14.72;100.00
73817;BME280;62146;53.232;-1.304;2023-04-08T10:35:33;101575.16;;;14.86;100.00
73817;BME280;62146;53.232;-1.304;2023-04-08T10:38:00;101572.66;;;14.96;100.00
73817;BME280;62146;53.232;-1.304;2023-04-08T10:40:27;101573.22;;;15.09;100.00
73817;BME280;62146;53.232;-1.304;2023-04-08T10:42:57;101574.53;;;15.23;100.00
73817;BME280;62146;53.232;-1.304;2023-04-08T10:45:24;101562.16;;;15.33;100.00
73817;BME280;62146;53.232;-1.304;2023-04-08T10:47:51;101571.72;;;15.45;100.00
73817;BME280;62146;53.232;-1.304;2023-04-08T10:50:19;101564.44;;;15.57;100.00
73817;BME280;62146;53.232;-1.304;2023-04-08T10:52:50;101573.19;;;15.69;100.00
73817;BME280;62146;53.232;-1.304;2023-04-08T10:55:24;101565.91;;;15.81;100.00
73817;BME280;62146;53.232;-1.304;2023-04-08T10:57:52;101573.00;;;15.91;100.00
73817;BME280;62146;53.232;-1.304;2023-04-08T11:00:39;101564.38;;;16.06;100.00
73817;BME280;62146;53.232;-1.304;2023-04-08T11:03:08;101558.72;;;16.18;100.00
73817;BME280;62146;53.232;-1.304;2023-04-08T11:05:36;101558.38;;;16.31;100.00
73817;BME280;62146;53.232;-1.304;2023-04-08T11:08:06;101551.06;;;16.48;100.00
73817;BME280;62146;53.232;-1.304;2023-04-08T11:10:37;101553.56;;;16.54;100.00
73817;BME280;62146;53.232;-1.304;2023-04-08T11:13:07;101551.25;;;16.62;100.00
73817;BME280;62146;53.232;-1.304;2023-04-08T11:15:36;101552.69;;;16.70;100.00
73817;BME280;62146;53.232;-1.304;2023-04-08T11:18:04;101550.84;;;16.75;100.00
73817;BME280;62146;53.232;-1.304;2023-04-08T11:20:32;101559.50;;;16.82;100.00
73817;BME280;62146;53.232;-1.304;2023-04-08T11:23:02;101553.66;;;16.85;100.00
73817;BME280;62146;53.232;-1.304;2023-04-08T11:25:29;101546.72;;;16.89;100.00
73817;BME280;62146;53.232;-1.304;2023-04-08T11:27:56;101540.38;;;16.95;100.00
73817;BME280;62146;53.232;-1.304;2023-04-08T11:30:22;101543.91;;;17.00;100.00
73817;BME280;62146;53.232;-1.304;2023-04-08T11:32:50;101544.84;;;17.11;100.00
73817;BME280;62146;53.232;-1.304;2023-04-08T11:35:17;101543.31;;;17.19;100.00
73817;BME280;62146;53.232;-1.304;2023-04-08T11:37:44;101548.25;;;17.32;100.00
73817;BME280;62146;53.232;-1.304;2023-04-08T11:40:19;101541.13;;;17.42;100.00
73817;BME280;62146;53.232;-1.304;2023-04-08T11:42:46;101550.59;;;17.55;100.00
73817;BME280;62146;53.232;-1.304;2023-04-08T11:45:14;101550.19;;;17.68;100.00
73817;BME280;62146;53.232;-1.304;2023-04-08T11:47:42;101540.06;;;17.79;100.00
73817;BME280;62146;53.232;-1.304;2023-04-08T11:50:09;101548.22;;;17.94;100.00
73817;BME280;62146;53.232;-1.304;2023-04-08T11:55:20;101546.25;;;18.21;100.00
73817;BME280;62146;53.232;-1.304;2023-04-08T11:57:47;101545.53;;;18.40;100.00
73817;BME280;62146;53.232;-1.304;2023-04-08T12:00:13;101543.75;;;18.60;100.00
73817;BME280;62146;53.232;-1.304;2023-04-08T12:02:40;101539.75;;;18.77;100.00
73817;BME280;62146;53.232;-1.304;2023-04-08T12:05:07;101535.81;;;18.99;100.00
73817;BME280;62146;53.232;-1.304;2023-04-08T12:07:34;101534.22;;;19.18;100.00
73817;BME280;62146;53.232;-1.304;2023-04-08T12:10:00;101526.72;;;19.34;100.00
73817;BME280;62146;53.232;-1.304;2023-04-08T12:12:27;101523.22;;;19.54;100.00
73817;BME280;62146;53.232;-1.304;2023-04-08T12:14:53;101519.97;;;19.71;100.00
73817;BME280;62146;53.232;-1.304;2023-04-08T12:17:20;101518.63;;;19.88;100.00
73817;BME280;62146;53.232;-1.304;2023-04-08T12:19:47;101519.38;;;20.09;100.00
73817;BME280;62146;53.232;-1.304;2023-04-08T12:22:13;101519.84;;;20.25;100.00
73817;BME280;62146;53.232;-1.304;2023-04-08T12:24:40;101509.56;;;20.42;100.00
73817;BME280;62146;53.232;-1.304;2023-04-08T12:27:06;101510.03;;;20.59;100.00
73817;BME280;62146;53.232;-1.304;2023-04-08T12:29:33;101512.09;;;20.76;100.00
73817;BME280;62146;53.232;-1.304;2023-04-08T12:32:00;101514.13;;;20.94;100.00
73817;BME280;62146;53.232;-1.304;2023-04-08T12:34:27;101512.38;;;21.13;100.00
73817;BME280;62146;53.232;-1.304;2023-04-08T12:36:54;101507.97;;;21.26;100.00
73817;BME280;62146;53.232;-1.304;2023-04-08T12:39:21;101501.69;;;21.41;100.00
73817;BME280;62146;53.232;-1.304;2023-04-08T12:41:48;101505.31;;;21.54;100.00
73817;BME280;62146;53.232;-1.304;2023-04-08T12:44:14;101503.28;;;21.70;100.00
73817;BME280;62146;53.232;-1.304;2023-04-08T12:46:41;101515.28;;;21.87;100.00
73817;BME280;62146;53.232;-1.304;2023-04-08T12:49:08;101513.50;;;22.05;100.00
73817;BME280;62146;53.232;-1.304;2023-04-08T12:51:35;101509.50;;;22.21;100.00
73817;BME280;62146;53.232;-1.304;2023-04-08T12:54:01;101514.50;;;22.32;100.00
73817;BME280;62146;53.232;-1.304;2023-04-08T12:56:30;101513.94;;;22.35;100.00
73817;BME280;62146;53.232;-1.304;2023-04-08T12:58:58;101519.34;;;22.35;100.00
73817;BME280;62146;53.232;-1.304;2023-04-08T13:01:24;101517.22;;;22.32;100.00
73817;BME280;62146;53.232;-1.304;2023-04-08T13:03:51;101512.53;;;22.38;100.00
73817;BME280;62146;53.232;-1.304;2023-04-08T13:06:18;101504.81;;;22.50;100.00